createdAt,value
2023-03-14T00:00:58.355Z,10.20
2023-03-14T00:01:59.888Z,10.20
2023-03-14T00:03:01.528Z,10.20
2023-03-14T00:04:06.311Z,10.20
2023-03-14T00:05:09.585Z,10.20
2023-03-14T00:06:12.286Z,10.20
2023-03-14T00:07:14.271Z,10.20
2023-03-14T00:08:15.968Z,10.20
2023-03-14T00:09:18.597Z,10.10
2023-03-14T00:10:20.382Z,10.20
2023-03-14T00:11:22.774Z,10.20
2023-03-14T00:12:24.318Z,10.20
2023-03-14T00:13:26.013Z,10.10
2023-03-14T00:14:28.186Z,10.10
2023-03-14T00:15:29.621Z,10.20
2023-03-14T00:16:31.086Z,10.20
2023-03-14T00:17:32.656Z,10.20
2023-03-14T00:18:34.936Z,10.20
2023-03-14T00:19:36.355Z,10.30
2023-03-14T00:20:37.853Z,10.20
2023-03-14T00:21:39.313Z,10.30
2023-03-14T00:22:42.175Z,10.30
2023-03-14T00:23:44.426Z,10.20
2023-03-14T00:24:45.807Z,10.20
2023-03-14T00:25:47.280Z,10.30
2023-03-14T00:26:49.128Z,10.30
2023-03-14T00:27:52.945Z,10.30
2023-03-14T00:28:55.362Z,10.30
2023-03-14T00:29:57.582Z,10.40
2023-03-14T00:30:59.458Z,10.40
2023-03-14T00:32:01.643Z,10.40
2023-03-14T00:33:03.316Z,10.40
2023-03-14T00:34:04.921Z,10.50
2023-03-14T00:35:07.863Z,10.50
2023-03-14T00:36:17.711Z,10.60
2023-03-14T00:37:20.351Z,10.50
2023-03-14T00:38:22.339Z,10.50
2023-03-14T00:39:24.003Z,10.60
2023-03-14T00:40:26.020Z,10.60
2023-03-14T00:41:27.951Z,10.60
2023-03-14T00:42:29.693Z,10.70
2023-03-14T00:43:33.229Z,10.70
2023-03-14T00:44:35.282Z,10.80
2023-03-14T00:45:37.092Z,10.80
2023-03-14T00:46:39.698Z,10.70
2023-03-14T00:47:46.528Z,10.70
2023-03-14T00:48:48.776Z,10.80
2023-03-14T00:49:50.302Z,10.80
2023-03-14T00:50:51.819Z,10.80
2023-03-14T00:51:53.495Z,10.80
2023-03-14T00:52:55.039Z,10.80
2023-03-14T00:53:56.645Z,10.80
2023-03-14T00:54:58.757Z,10.90
2023-03-14T00:56:05.363Z,10.90
2023-03-14T00:57:06.815Z,10.90
2023-03-14T00:58:08.296Z,11.00
2023-03-14T00:59:09.921Z,11.00
2023-03-14T01:00:13.450Z,11.00
2023-03-14T01:01:19.804Z,11.00
2023-03-14T01:02:21.700Z,11.00
2023-03-14T01:03:25.162Z,11.00
2023-03-14T01:04:27.478Z,11.00
2023-03-14T01:05:30.530Z,11.00
2023-03-14T01:06:32.131Z,11.10
2023-03-14T01:07:33.660Z,11.10
2023-03-14T01:08:35.178Z,11.10
2023-03-14T01:09:36.801Z,11.10
2023-03-14T01:10:41.498Z,11.20
2023-03-14T01:11:44.179Z,11.20
2023-03-14T01:12:45.673Z,11.10
2023-03-14T01:13:47.890Z,11.20
2023-03-14T01:14:49.851Z,11.20
2023-03-14T01:15:51.957Z,11.20
2023-03-14T01:16:53.478Z,11.20
2023-03-14T01:17:55.319Z,11.20
2023-03-14T01:18:58.310Z,11.20
2023-03-14T01:20:01.225Z,11.20
2023-03-14T01:21:05.651Z,11.10
2023-03-14T01:22:07.162Z,11.10
2023-03-14T01:23:08.592Z,11.10
2023-03-14T01:24:12.462Z,11.10
2023-03-14T01:25:16.436Z,11.20
2023-03-14T01:26:20.234Z,11.20
2023-03-14T01:27:21.748Z,11.20
2023-03-14T01:28:23.235Z,11.20
2023-03-14T01:29:24.812Z,11.20
2023-03-14T01:30:26.336Z,11.20
2023-03-14T01:31:28.429Z,11.20
2023-03-14T01:32:30.322Z,11.30
2023-03-14T01:33:31.826Z,11.20
2023-03-14T01:34:33.872Z,11.20
2023-03-14T01:35:35.430Z,11.20
2023-03-14T01:36:37.067Z,11.20
2023-03-14T01:37:38.576Z,11.20
2023-03-14T01:38:42.487Z,11.20
2023-03-14T01:39:48.669Z,11.20
2023-03-14T01:40:50.117Z,11.20
2023-03-14T01:41:52.459Z,11.20
2023-03-14T01:42:58.659Z,11.10
2023-03-14T01:44:00.612Z,11.10
2023-03-14T01:45:03.009Z,11.10
2023-03-14T01:46:07.910Z,11.00
2023-03-14T01:47:14.933Z,10.90
2023-03-14T01:48:17.734Z,10.90
2023-03-14T01:49:22.205Z,10.90
2023-03-14T01:50:32.176Z,10.80
2023-03-14T01:51:52.654Z,10.80
2023-03-14T01:52:54.594Z,10.70
2023-03-14T01:54:05.019Z,10.80
2023-03-14T01:55:23.159Z,10.70
2023-03-14T01:56:25.230Z,10.70
2023-03-14T01:57:36.978Z,10.70
2023-03-14T01:58:40.460Z,10.70
2023-03-14T01:59:47.550Z,10.60
2023-03-14T02:00:49.266Z,10.60
2023-03-14T02:01:52.470Z,10.60
2023-03-14T02:03:00.924Z,10.50
2023-03-14T02:04:06.405Z,10.60
2023-03-14T02:05:08.294Z,10.50
2023-03-14T02:06:12.737Z,10.50
2023-03-14T02:07:22.397Z,10.50
2023-03-14T02:08:36.348Z,10.50
2023-03-14T02:09:42.216Z,10.50
2023-03-14T02:10:48.934Z,10.60
2023-03-14T02:11:52.004Z,10.60
2023-03-14T02:13:22.139Z,10.60
2023-03-14T02:14:39.612Z,10.50
2023-03-14T02:15:55.892Z,10.50
2023-03-14T02:17:20.437Z,10.60
2023-03-14T02:18:41.527Z,10.60
2023-03-14T02:20:38.945Z,10.60
2023-03-14T02:22:02.992Z,10.70
2023-03-14T02:23:10.354Z,10.70
2023-03-14T02:24:26.007Z,10.70
2023-03-14T02:25:42.324Z,10.70
2023-03-14T02:27:05.042Z,10.70
2023-03-14T02:28:06.643Z,10.70
2023-03-14T02:29:09.140Z,10.70
2023-03-14T02:30:12.535Z,10.70
2023-03-14T02:31:16.713Z,10.70
2023-03-14T02:32:20.044Z,10.70
2023-03-14T02:33:23.228Z,10.70
2023-03-14T02:34:26.113Z,10.70
2023-03-14T02:35:33.362Z,10.80
2023-03-14T02:36:35.609Z,10.70
2023-03-14T02:37:58.391Z,10.80
2023-03-14T02:39:19.903Z,10.80
2023-03-14T02:40:22.643Z,10.80
2023-03-14T02:41:26.545Z,10.80
2023-03-14T02:42:35.565Z,10.80
2023-03-14T02:43:38.335Z,10.80
2023-03-14T02:45:10.042Z,10.90
2023-03-14T02:46:21.235Z,10.80
2023-03-14T02:47:29.006Z,10.90
2023-03-14T02:48:45.809Z,10.80
2023-03-14T02:49:48.434Z,10.90
2023-03-14T02:50:53.262Z,10.80
2023-03-14T02:51:54.747Z,10.80
2023-03-14T02:52:56.318Z,10.80
2023-03-14T02:53:58.269Z,10.90
2023-03-14T02:55:00.641Z,10.90
2023-03-14T02:56:03.054Z,10.90
2023-03-14T02:57:06.380Z,10.90
2023-03-14T02:58:07.906Z,10.90
2023-03-14T02:59:09.350Z,10.90
2023-03-14T03:00:18.734Z,10.90
2023-03-14T03:01:20.819Z,11.00
2023-03-14T03:02:22.325Z,11.00
2023-03-14T03:03:24.021Z,11.00
2023-03-14T03:04:25.492Z,11.00
2023-03-14T03:05:26.951Z,11.00
2023-03-14T03:06:28.580Z,11.00
2023-03-14T03:07:30.113Z,11.00
2023-03-14T03:08:32.839Z,11.00
2023-03-14T03:09:35.415Z,11.00
2023-03-14T03:10:37.075Z,11.00
2023-03-14T03:11:38.836Z,11.00
2023-03-14T03:12:41.242Z,11.00
2023-03-14T03:13:42.747Z,11.00
2023-03-14T03:14:44.759Z,11.00
2023-03-14T03:15:46.680Z,11.10
2023-03-14T03:16:48.142Z,11.10
2023-03-14T03:17:50.125Z,11.10
2023-03-14T03:18:51.645Z,11.10
2023-03-14T03:19:53.181Z,11.10
2023-03-14T03:20:54.701Z,11.10
2023-03-14T03:21:58.658Z,11.20
2023-03-14T03:23:00.640Z,11.20
2023-03-14T03:24:02.150Z,11.20
2023-03-14T03:25:05.594Z,11.20
2023-03-14T03:26:07.263Z,11.20
2023-03-14T03:27:08.737Z,11.20
2023-03-14T03:28:10.383Z,11.20
2023-03-14T03:29:13.828Z,11.20
2023-03-14T03:30:15.679Z,11.20
2023-03-14T03:31:17.257Z,11.20
2023-03-14T03:32:18.820Z,11.20
2023-03-14T03:33:20.317Z,11.20
2023-03-14T03:34:21.881Z,11.20
2023-03-14T03:35:26.091Z,11.20
2023-03-14T03:36:29.694Z,11.20
2023-03-14T03:37:34.867Z,11.20
2023-03-14T03:38:37.180Z,11.30
2023-03-14T03:39:40.121Z,11.30
2023-03-14T03:40:41.976Z,11.30
2023-03-14T03:41:44.431Z,11.30
2023-03-14T03:42:46.507Z,11.30
2023-03-14T03:43:48.197Z,11.20
2023-03-14T03:44:51.441Z,11.20
2023-03-14T03:45:53.310Z,11.30
2023-03-14T03:46:55.896Z,11.30
2023-03-14T03:47:57.432Z,11.30
2023-03-14T03:49:00.515Z,11.20
2023-03-14T03:50:03.742Z,11.20
2023-03-14T03:51:05.810Z,11.30
2023-03-14T03:52:08.379Z,11.20
2023-03-14T03:53:10.239Z,11.30
2023-03-14T03:54:11.787Z,11.30
2023-03-14T03:55:13.806Z,11.20
2023-03-14T03:56:15.498Z,11.30
2023-03-14T03:57:18.076Z,11.30
2023-03-14T03:58:20.332Z,11.30
2023-03-14T03:59:22.129Z,11.20
2023-03-14T04:00:23.985Z,11.20
2023-03-14T04:01:26.063Z,11.20
2023-03-14T04:02:31.443Z,11.20
2023-03-14T04:03:33.988Z,11.20
2023-03-14T04:04:35.473Z,11.20
2023-03-14T04:05:38.182Z,11.20
2023-03-14T04:06:44.194Z,11.10
2023-03-14T04:07:45.724Z,11.20
2023-03-14T04:08:51.447Z,11.20
2023-03-14T04:10:13.659Z,11.10
2023-03-14T04:11:21.842Z,11.20
2023-03-14T04:12:46.700Z,11.20
2023-03-14T04:13:53.388Z,11.20
2023-03-14T04:14:54.939Z,11.20
2023-03-14T04:15:57.653Z,11.20
2023-03-14T04:17:01.706Z,11.20
2023-03-14T04:18:03.141Z,11.10
2023-03-14T04:19:05.942Z,11.10
2023-03-14T04:20:11.762Z,11.20
2023-03-14T04:21:13.352Z,11.20
2023-03-14T04:22:22.123Z,11.20
2023-03-14T04:23:26.752Z,11.20
2023-03-14T04:24:29.907Z,11.20
2023-03-14T04:25:32.501Z,11.20
2023-03-14T04:26:38.035Z,11.20
2023-03-14T04:27:39.941Z,11.20
2023-03-14T04:28:48.581Z,11.20
2023-03-14T04:29:50.100Z,11.20
2023-03-14T04:30:56.322Z,11.20
2023-03-14T04:32:00.270Z,11.20
2023-03-14T04:33:01.887Z,11.20
2023-03-14T04:34:05.483Z,11.30
2023-03-14T04:35:11.865Z,11.20
2023-03-14T04:36:13.562Z,11.20
2023-03-14T04:37:15.130Z,11.20
2023-03-14T04:38:19.385Z,11.20
2023-03-14T04:39:22.266Z,11.20
2023-03-14T04:40:30.208Z,11.20
2023-03-14T04:41:36.182Z,11.20
2023-03-14T04:42:37.888Z,11.20
2023-03-14T04:43:40.041Z,11.20
2023-03-14T04:44:44.411Z,11.20
2023-03-14T04:45:47.365Z,11.20
2023-03-14T04:46:49.877Z,11.10
2023-03-14T04:47:51.323Z,11.10
2023-03-14T04:48:54.492Z,11.10
2023-03-14T04:49:56.128Z,11.10
2023-03-14T04:50:59.793Z,11.10
2023-03-14T04:52:05.205Z,11.10
2023-03-14T04:53:08.372Z,11.10
2023-03-14T04:54:10.162Z,11.10
2023-03-14T04:55:12.479Z,11.10
2023-03-14T04:56:14.437Z,11.10
2023-03-14T04:57:18.451Z,11.10
2023-03-14T04:58:21.514Z,11.10
2023-03-14T04:59:24.443Z,11.10
2023-03-14T05:00:28.723Z,11.10
2023-03-14T05:01:32.872Z,11.20
2023-03-14T05:02:52.964Z,11.10
2023-03-14T05:04:08.661Z,11.10
2023-03-14T05:05:24.310Z,11.20
2023-03-14T05:06:36.705Z,11.10
2023-03-14T05:07:57.616Z,11.10
2023-03-14T05:09:19.582Z,11.20
2023-03-14T05:10:39.099Z,11.20
2023-03-14T05:12:09.882Z,11.10
2023-03-14T05:13:25.129Z,11.10
2023-03-14T05:14:40.381Z,11.00
2023-03-14T05:16:10.361Z,11.00
2023-03-14T05:17:40.990Z,11.00
2023-03-14T05:19:14.882Z,11.00
2023-03-14T05:20:32.025Z,11.00
2023-03-14T05:21:55.150Z,11.00
2023-03-14T05:23:26.031Z,11.10
2023-03-14T05:24:49.662Z,11.10
2023-03-14T05:26:09.556Z,11.10
2023-03-14T05:27:18.555Z,11.10
2023-03-14T05:28:46.409Z,11.00
2023-03-14T05:30:07.442Z,11.10
2023-03-14T05:31:38.000Z,11.10
2023-03-14T05:32:58.185Z,11.10
2023-03-14T05:34:15.922Z,11.20
2023-03-14T05:35:41.441Z,11.20
2023-03-14T05:36:53.390Z,11.20
2023-03-14T05:38:15.374Z,11.30
2023-03-14T05:39:35.568Z,11.20
2023-03-14T05:40:46.903Z,11.20
2023-03-14T05:42:08.618Z,11.30
2023-03-14T05:43:22.352Z,11.30
2023-03-14T05:44:42.482Z,11.30
2023-03-14T05:46:04.853Z,11.30
2023-03-14T05:47:06.334Z,11.30
2023-03-14T05:48:25.855Z,11.40
2023-03-14T05:49:40.160Z,11.40
2023-03-14T05:50:57.692Z,11.50
2023-03-14T05:52:10.658Z,11.40
2023-03-14T05:53:33.748Z,11.50
2023-03-14T05:54:50.150Z,11.40
2023-03-14T05:56:09.759Z,11.50
2023-03-14T05:57:29.924Z,11.50
2023-03-14T05:59:04.213Z,11.50
2023-03-14T06:00:17.233Z,11.50
2023-03-14T06:01:35.880Z,11.60
2023-03-14T06:02:45.001Z,11.60
2023-03-14T06:04:01.085Z,11.60
2023-03-14T06:05:08.946Z,11.60
2023-03-14T06:06:11.919Z,11.60
2023-03-14T06:07:18.855Z,11.50
2023-03-14T06:08:25.569Z,11.50
2023-03-14T06:09:29.671Z,11.50
2023-03-14T06:10:35.418Z,11.60
2023-03-14T06:11:36.917Z,11.50
2023-03-14T06:12:40.214Z,11.50
2023-03-14T06:13:41.676Z,11.60
2023-03-14T06:14:44.108Z,11.60
2023-03-14T06:15:46.231Z,11.50
2023-03-14T06:16:50.113Z,11.60
2023-03-14T06:17:55.933Z,11.60
2023-03-14T06:18:57.581Z,11.70
2023-03-14T06:19:59.683Z,11.60
2023-03-14T06:21:01.334Z,11.60
2023-03-14T06:22:06.591Z,11.60
2023-03-14T06:23:12.468Z,11.80
2023-03-14T06:24:23.048Z,11.70
2023-03-14T06:25:30.047Z,11.70
2023-03-14T06:26:34.594Z,11.70
2023-03-14T06:27:44.636Z,11.70
2023-03-14T06:28:47.942Z,11.70
2023-03-14T06:29:49.432Z,11.70
2023-03-14T06:30:51.068Z,11.70
2023-03-14T06:31:52.541Z,11.70
2023-03-14T06:32:54.722Z,11.70
2023-03-14T06:33:57.241Z,11.70
2023-03-14T06:35:03.398Z,11.70
2023-03-14T06:36:10.063Z,11.80
2023-03-14T06:37:14.643Z,11.80
2023-03-14T06:38:16.391Z,11.80
2023-03-14T06:39:17.902Z,11.80
2023-03-14T06:40:22.898Z,11.90
2023-03-14T06:41:29.175Z,11.90
2023-03-14T06:42:32.656Z,12.00
2023-03-14T06:43:34.190Z,12.00
2023-03-14T06:44:35.635Z,12.00
2023-03-14T06:45:37.562Z,12.00
2023-03-14T06:46:39.324Z,12.10
2023-03-14T06:47:41.318Z,12.00
2023-03-14T06:48:43.866Z,12.10
2023-03-14T06:49:48.897Z,12.10
2023-03-14T06:50:52.069Z,12.20
2023-03-14T06:51:53.819Z,12.20
2023-03-14T06:52:55.448Z,12.20
2023-03-14T06:54:00.084Z,12.20
2023-03-14T06:55:03.817Z,12.20
2023-03-14T06:56:06.723Z,12.40
2023-03-14T06:57:09.230Z,12.40
2023-03-14T06:58:11.004Z,12.40
2023-03-14T06:59:17.143Z,12.50
2023-03-14T07:00:22.568Z,12.50
2023-03-14T07:01:29.297Z,12.50
2023-03-14T07:02:42.950Z,12.50
2023-03-14T07:03:55.150Z,12.60
2023-03-14T07:04:57.264Z,12.50
2023-03-14T07:05:58.699Z,12.50
2023-03-14T07:07:00.722Z,12.50
2023-03-14T07:08:02.140Z,12.50
2023-03-14T07:09:04.293Z,12.50
2023-03-14T07:10:09.656Z,12.50
2023-03-14T07:11:11.981Z,12.60
2023-03-14T07:12:14.311Z,12.60
2023-03-14T07:13:15.964Z,12.60
2023-03-14T07:14:27.184Z,12.60
2023-03-14T07:15:29.117Z,12.70
2023-03-14T07:16:35.015Z,12.70
2023-03-14T07:17:36.498Z,12.80
2023-03-14T07:18:38.510Z,12.80
2023-03-14T07:19:41.792Z,12.90
2023-03-14T07:20:46.699Z,12.90
2023-03-14T07:21:49.618Z,12.80
2023-03-14T07:22:56.149Z,12.80
2023-03-14T07:24:09.932Z,12.90
2023-03-14T07:25:13.098Z,13.00
2023-03-14T07:26:14.901Z,13.00
2023-03-14T07:27:21.441Z,13.00
2023-03-14T07:28:24.202Z,13.10
2023-03-14T07:29:32.020Z,13.10
2023-03-14T07:30:38.018Z,13.10
2023-03-14T07:31:46.490Z,13.20
2023-03-14T07:32:52.238Z,13.20
2023-03-14T07:33:57.117Z,13.30
2023-03-14T07:35:01.980Z,13.30
2023-03-14T07:36:05.502Z,13.30
2023-03-14T07:37:07.092Z,13.30
2023-03-14T07:38:08.735Z,13.30
2023-03-14T07:39:14.920Z,13.30
2023-03-14T07:40:39.413Z,13.30
2023-03-14T07:41:41.631Z,13.30
2023-03-14T07:43:17.528Z,13.20
2023-03-14T07:44:23.244Z,13.20
2023-03-14T07:45:25.147Z,13.20
2023-03-14T07:46:26.878Z,13.20
2023-03-14T07:47:28.385Z,13.30
2023-03-14T07:48:29.923Z,13.30
2023-03-14T07:49:31.439Z,13.20
2023-03-14T07:50:33.264Z,13.20
2023-03-14T07:51:34.980Z,13.10
2023-03-14T07:52:36.679Z,13.10
2023-03-14T07:53:38.070Z,13.10
2023-03-14T07:54:39.769Z,13.20
2023-03-14T07:55:41.586Z,13.20
2023-03-14T07:56:43.041Z,13.20
2023-03-14T07:57:44.783Z,13.20
2023-03-14T07:58:46.175Z,13.20
2023-03-14T07:59:48.006Z,13.10
2023-03-14T08:00:50.082Z,13.10
2023-03-14T08:01:51.533Z,13.10
2023-03-14T08:02:52.977Z,13.10
2023-03-14T08:03:54.656Z,13.10
2023-03-14T08:04:56.220Z,13.10
2023-03-14T08:05:58.124Z,13.10
2023-03-14T08:06:59.641Z,13.10
2023-03-14T08:08:01.112Z,13.00
2023-03-14T08:09:02.734Z,13.00
2023-03-14T08:10:05.259Z,13.00
2023-03-14T08:11:09.684Z,13.00
2023-03-14T08:12:11.084Z,12.90
2023-03-14T08:13:12.679Z,12.90
2023-03-14T08:14:14.111Z,12.90
2023-03-14T08:15:15.545Z,12.80
2023-03-14T08:16:18.384Z,12.80
2023-03-14T08:17:20.113Z,12.90
2023-03-14T08:18:21.474Z,12.90
2023-03-14T08:19:23.091Z,12.90
2023-03-14T08:20:27.776Z,12.80
2023-03-14T08:21:29.380Z,12.80
2023-03-14T08:22:31.062Z,12.80
2023-03-14T08:23:32.896Z,12.80
2023-03-14T08:24:34.821Z,12.70
2023-03-14T08:25:37.038Z,12.70
2023-03-14T08:26:38.565Z,12.70
2023-03-14T08:27:41.927Z,12.80
2023-03-14T08:28:43.444Z,12.80
2023-03-14T08:29:44.997Z,12.80
2023-03-14T08:30:47.935Z,12.70
2023-03-14T08:31:50.099Z,12.80
2023-03-14T08:32:51.899Z,12.80
2023-03-14T08:33:54.400Z,12.80
2023-03-14T08:34:55.808Z,12.80
2023-03-14T08:36:00.169Z,12.80
2023-03-14T08:37:04.317Z,12.80
2023-03-14T08:38:08.222Z,12.80
2023-03-14T08:39:10.294Z,12.80
2023-03-14T08:40:12.741Z,12.80
2023-03-14T08:41:14.518Z,12.80
2023-03-14T08:42:16.139Z,12.80
2023-03-14T08:43:17.589Z,12.80
2023-03-14T08:44:20.931Z,12.70
2023-03-14T08:45:22.541Z,12.70
2023-03-14T08:46:24.028Z,12.60
2023-03-14T08:47:26.352Z,12.60
2023-03-14T08:48:28.313Z,12.60
2023-03-14T08:49:29.804Z,12.60
2023-03-14T08:50:31.264Z,12.60
2023-03-14T08:51:33.035Z,12.60
2023-03-14T08:52:34.634Z,12.60
2023-03-14T08:53:36.064Z,12.60
2023-03-14T08:54:37.724Z,12.50
2023-03-14T08:55:39.372Z,12.50
2023-03-14T08:56:41.119Z,12.50
2023-03-14T08:57:42.601Z,12.50
2023-03-14T08:58:45.433Z,12.50
2023-03-14T08:59:47.332Z,12.50
2023-03-14T09:00:49.042Z,12.50
2023-03-14T09:01:50.914Z,12.50
2023-03-14T09:02:52.404Z,12.60
2023-03-14T09:03:53.927Z,12.60
2023-03-14T09:04:55.537Z,12.60
2023-03-14T09:05:57.215Z,12.70
2023-03-14T09:07:01.594Z,12.70
2023-03-14T09:08:03.269Z,12.70
2023-03-14T09:09:04.923Z,12.70
2023-03-14T09:10:08.129Z,12.80
2023-03-14T09:11:10.209Z,12.80
2023-03-14T09:12:12.618Z,12.80
2023-03-14T09:13:14.117Z,12.80
2023-03-14T09:14:16.368Z,12.90
2023-03-14T09:15:17.966Z,12.80
2023-03-14T09:16:19.476Z,12.80
2023-03-14T09:17:21.002Z,12.90
2023-03-14T09:18:23.613Z,12.90
2023-03-14T09:19:25.370Z,12.80
2023-03-14T09:20:26.920Z,12.80
2023-03-14T09:21:28.645Z,12.80
2023-03-14T09:22:30.296Z,12.80
2023-03-14T09:23:31.994Z,12.60
2023-03-14T09:24:33.682Z,12.60
2023-03-14T09:25:35.129Z,12.60
2023-03-14T09:26:37.135Z,12.50
2023-03-14T09:27:38.941Z,12.50
2023-03-14T09:28:40.391Z,12.50
2023-03-14T09:29:41.997Z,12.60
2023-03-14T09:30:44.022Z,12.50
2023-03-14T09:31:45.867Z,12.50
2023-03-14T09:32:47.772Z,12.50
2023-03-14T09:33:49.398Z,12.50
2023-03-14T09:34:51.045Z,12.60
2023-03-14T09:35:52.907Z,12.60
2023-03-14T09:36:54.625Z,12.60
2023-03-14T09:37:56.178Z,12.50
2023-03-14T09:38:57.793Z,12.60
2023-03-14T09:39:59.241Z,12.60
2023-03-14T09:41:03.640Z,12.60
2023-03-14T09:42:09.088Z,12.50
2023-03-14T09:43:15.110Z,12.50
2023-03-14T09:44:25.889Z,12.50
2023-03-14T09:45:41.319Z,12.50
2023-03-14T09:46:46.275Z,12.50
2023-03-14T09:47:58.570Z,12.50
2023-03-14T09:49:01.047Z,12.40
2023-03-14T09:50:02.672Z,12.40
2023-03-14T09:51:18.352Z,12.40
2023-03-14T09:52:36.101Z,12.30
2023-03-14T09:53:49.130Z,12.30
2023-03-14T09:54:58.170Z,12.20
2023-03-14T09:56:00.282Z,12.20
2023-03-14T09:57:01.852Z,12.20
2023-03-14T09:58:14.267Z,12.10
2023-03-14T09:59:16.526Z,11.90
2023-03-14T10:00:22.017Z,12.00
2023-03-14T10:01:32.406Z,12.00
2023-03-14T10:02:36.740Z,12.00
2023-03-14T10:03:38.312Z,12.00
2023-03-14T10:04:42.587Z,12.10
2023-03-14T10:05:44.435Z,12.10
2023-03-14T10:06:46.109Z,12.00
2023-03-14T10:07:48.347Z,11.80
2023-03-14T10:08:50.303Z,11.80
2023-03-14T10:09:52.533Z,11.80
2023-03-14T10:10:55.614Z,11.80
2023-03-14T10:12:08.852Z,11.70
2023-03-14T10:13:27.093Z,11.70
2023-03-14T10:14:37.298Z,11.60
2023-03-14T10:15:39.365Z,11.50
2023-03-14T10:16:46.384Z,11.50
2023-03-14T10:17:49.808Z,11.50
2023-03-14T10:18:51.217Z,11.50
2023-03-14T10:19:58.095Z,11.50
2023-03-14T10:21:30.872Z,11.50
2023-03-14T10:22:33.722Z,11.50
2023-03-14T10:23:36.406Z,11.50
2023-03-14T10:24:38.661Z,11.50
2023-03-14T10:25:45.624Z,11.40
2023-03-14T10:26:54.000Z,11.40
2023-03-14T10:27:55.437Z,11.50
2023-03-14T10:29:09.927Z,11.50
2023-03-14T10:30:39.159Z,11.40
2023-03-14T10:32:04.885Z,11.40
2023-03-14T10:33:20.689Z,11.40
2023-03-14T10:34:25.989Z,11.50
2023-03-14T10:35:27.491Z,11.50
2023-03-14T10:36:32.467Z,11.50
2023-03-14T10:37:34.097Z,11.60
2023-03-14T10:38:37.455Z,11.50
2023-03-14T10:39:46.109Z,11.50
2023-03-14T10:40:50.576Z,11.50
2023-03-14T10:41:55.307Z,11.50
2023-03-14T10:42:58.598Z,11.50
2023-03-14T10:44:01.571Z,11.50
2023-03-14T10:45:08.390Z,11.50
2023-03-14T10:46:18.466Z,11.60
2023-03-14T10:47:50.736Z,11.50
2023-03-14T10:48:54.057Z,11.50
2023-03-14T10:49:57.066Z,11.50
2023-03-14T10:50:58.726Z,11.50
2023-03-14T10:52:20.427Z,11.50
2023-03-14T10:53:23.343Z,11.50
2023-03-14T10:54:25.482Z,11.40
2023-03-14T10:55:27.267Z,11.40
2023-03-14T10:56:35.572Z,11.40
2023-03-14T10:57:44.938Z,11.40
2023-03-14T10:58:49.118Z,11.40
2023-03-14T10:59:50.584Z,11.40
2023-03-14T11:01:06.421Z,11.40
2023-03-14T11:02:37.435Z,11.50
2023-03-14T11:03:43.694Z,11.60
2023-03-14T11:05:03.329Z,11.50
2023-03-14T11:06:20.968Z,11.50
2023-03-14T11:07:31.049Z,11.40
2023-03-14T11:09:06.530Z,11.40
2023-03-14T11:10:25.906Z,11.40
2023-03-14T11:11:31.189Z,11.40
2023-03-14T11:13:13.519Z,11.40
2023-03-14T11:14:39.787Z,11.40
2023-03-14T11:15:50.843Z,11.40
2023-03-14T11:17:27.722Z,11.40
2023-03-14T11:18:35.271Z,11.50
2023-03-14T11:19:52.123Z,11.60
2023-03-14T11:21:04.000Z,11.60
2023-03-14T11:22:05.634Z,11.60
2023-03-14T11:23:17.085Z,11.70
2023-03-14T11:24:36.995Z,11.70
2023-03-14T11:25:41.543Z,11.70
2023-03-14T11:26:56.548Z,11.70
2023-03-14T11:28:16.089Z,11.70
2023-03-14T11:29:27.407Z,11.60
2023-03-14T11:30:37.601Z,11.60
2023-03-14T11:31:45.282Z,11.60
2023-03-14T11:33:17.251Z,11.50
2023-03-14T11:34:22.478Z,11.50
2023-03-14T11:35:26.708Z,11.50
2023-03-14T11:36:42.199Z,11.50
2023-03-14T11:38:06.187Z,11.40
2023-03-14T11:39:16.841Z,11.40
2023-03-14T11:40:22.333Z,10.90
2023-03-14T11:41:39.239Z,10.40
2023-03-14T11:42:44.395Z,9.70
2023-03-14T11:43:49.726Z,8.90
2023-03-14T11:44:52.438Z,8.50
2023-03-14T11:45:59.593Z,8.30
2023-03-14T11:47:11.125Z,8.10
2023-03-14T11:48:15.822Z,8.00
2023-03-14T11:49:42.073Z,7.80
2023-03-14T11:50:45.240Z,7.70
2023-03-14T11:51:54.559Z,7.60
2023-03-14T11:53:02.950Z,7.50
2023-03-14T11:54:17.410Z,7.50
2023-03-14T11:55:33.308Z,7.60
2023-03-14T11:56:47.691Z,7.50
2023-03-14T11:57:52.601Z,7.50
2023-03-14T11:59:06.599Z,7.50
2023-03-14T12:00:18.424Z,7.50
2023-03-14T12:01:25.190Z,7.60
2023-03-14T12:03:03.879Z,7.60
2023-03-14T12:04:20.880Z,7.70
2023-03-14T12:05:34.283Z,7.90
2023-03-14T12:06:49.868Z,7.90
2023-03-14T12:08:09.675Z,8.10
2023-03-14T12:09:11.955Z,8.10
2023-03-14T12:10:13.523Z,8.10
2023-03-14T12:11:51.852Z,8.00
2023-03-14T12:12:53.698Z,8.10
2023-03-14T12:13:55.252Z,8.10
2023-03-14T12:14:59.873Z,8.20
2023-03-14T12:16:06.727Z,8.20
2023-03-14T12:17:34.961Z,8.30
2023-03-14T12:18:40.357Z,8.30
2023-03-14T12:19:42.835Z,8.50
2023-03-14T12:20:54.228Z,8.60
2023-03-14T12:22:31.013Z,8.70
2023-03-14T12:23:43.494Z,8.80
2023-03-14T12:24:51.220Z,9.00
2023-03-14T12:26:12.722Z,9.10
2023-03-14T12:27:42.795Z,9.20
2023-03-14T12:28:51.790Z,9.40
2023-03-14T12:30:03.247Z,9.50
2023-03-14T12:31:31.095Z,9.60
2023-03-14T12:32:33.316Z,9.90
2023-03-14T12:33:35.354Z,9.80
2023-03-14T12:34:46.527Z,9.80
2023-03-14T12:35:52.835Z,9.80
2023-03-14T12:37:09.719Z,9.80
2023-03-14T12:38:22.206Z,9.80
2023-03-14T12:39:57.191Z,9.80
2023-03-14T12:41:36.489Z,9.80
2023-03-14T12:43:02.048Z,9.80
2023-03-14T12:44:31.154Z,10.00
2023-03-14T12:45:34.957Z,10.00
2023-03-14T12:46:36.591Z,10.10
2023-03-14T12:47:38.009Z,10.10
2023-03-14T12:48:41.483Z,10.20
2023-03-14T12:49:43.073Z,10.20
2023-03-14T12:50:56.273Z,10.20
2023-03-14T12:52:02.538Z,10.30
2023-03-14T12:53:37.372Z,10.20
2023-03-14T12:55:03.562Z,10.20
2023-03-14T12:56:48.602Z,10.20
2023-03-14T12:58:06.920Z,10.10
2023-03-14T12:59:37.433Z,10.00
2023-03-14T13:00:43.314Z,9.90
2023-03-14T13:01:55.488Z,9.90
2023-03-14T13:03:13.083Z,9.80
2023-03-14T13:04:15.463Z,9.80
2023-03-14T13:05:25.957Z,9.70
2023-03-14T13:06:46.424Z,9.70
2023-03-14T13:07:47.803Z,9.60
2023-03-14T13:08:49.439Z,9.50
2023-03-14T13:10:48.768Z,9.50
2023-03-14T13:11:50.556Z,9.40
2023-03-14T13:12:56.810Z,9.40
2023-03-14T13:13:59.988Z,9.20
2023-03-14T13:15:03.611Z,9.00
2023-03-14T13:16:05.622Z,8.80
2023-03-14T13:17:33.453Z,8.70
2023-03-14T13:18:41.122Z,8.70
2023-03-14T13:19:44.581Z,8.60
2023-03-14T13:21:00.270Z,8.60
2023-03-14T13:22:05.338Z,8.60
2023-03-14T13:23:20.038Z,8.70
2023-03-14T13:24:29.350Z,8.80
2023-03-14T13:25:35.608Z,9.00
2023-03-14T13:26:49.302Z,9.00
2023-03-14T13:27:56.715Z,9.10
2023-03-14T13:28:58.664Z,9.10
2023-03-14T13:30:05.788Z,9.10
2023-03-14T13:31:15.366Z,9.20
2023-03-14T13:32:28.531Z,9.20
2023-03-14T13:33:30.340Z,9.20
2023-03-14T13:34:35.643Z,9.20
2023-03-14T13:35:49.547Z,9.10
2023-03-14T13:36:54.016Z,9.20
2023-03-14T13:38:12.296Z,9.20
2023-03-14T13:39:15.632Z,9.20
2023-03-14T13:40:34.206Z,9.10
2023-03-14T13:41:36.239Z,9.10
2023-03-14T13:42:37.755Z,9.10
2023-03-14T13:43:44.669Z,9.10
2023-03-14T13:44:47.413Z,9.10
2023-03-14T13:46:06.976Z,9.10
2023-03-14T13:47:21.276Z,9.10
2023-03-14T13:48:27.479Z,9.10
2023-03-14T13:49:33.425Z,9.10
2023-03-14T13:50:34.896Z,9.20
2023-03-14T13:51:40.824Z,9.20
2023-03-14T13:52:42.308Z,9.20
2023-03-14T13:53:55.416Z,9.20
2023-03-14T13:55:00.256Z,9.20
2023-03-14T13:56:04.892Z,9.20
2023-03-14T13:57:07.525Z,9.20
2023-03-14T13:58:30.916Z,9.20
2023-03-14T13:59:34.565Z,9.20
2023-03-14T14:00:36.161Z,9.20
2023-03-14T14:01:39.674Z,9.20
2023-03-14T14:02:41.587Z,9.20
2023-03-14T14:03:45.171Z,9.20
2023-03-14T14:04:48.777Z,9.20
2023-03-14T14:05:50.449Z,9.20
2023-03-14T14:06:55.555Z,9.30
2023-03-14T14:07:57.889Z,9.30
2023-03-14T14:09:14.934Z,9.30
2023-03-14T14:10:16.491Z,9.10
2023-03-14T14:11:30.222Z,9.10
2023-03-14T14:12:42.970Z,9.10
2023-03-14T14:13:44.437Z,9.10
2023-03-14T14:15:10.732Z,9.10
2023-03-14T14:16:13.316Z,9.10
2023-03-14T14:17:20.892Z,9.00
2023-03-14T14:18:26.964Z,9.00
2023-03-14T14:19:31.248Z,9.00
2023-03-14T14:20:38.197Z,8.90
2023-03-14T14:21:39.960Z,9.00
2023-03-14T14:22:41.528Z,9.00
2023-03-14T14:23:43.916Z,8.90
2023-03-14T14:24:45.467Z,9.00
2023-03-14T14:25:50.101Z,9.00
2023-03-14T14:26:53.665Z,8.90